createdAt,value
2023-03-13T00:01:33.198Z,6.20
2023-03-13T00:04:00.015Z,6.20
2023-03-13T00:06:32.106Z,6.20
2023-03-13T00:09:00.659Z,6.20
2023-03-13T00:11:28.060Z,6.20
2023-03-13T00:13:59.194Z,6.20
2023-03-13T00:16:27.603Z,6.20
2023-03-13T00:18:55.795Z,6.10
2023-03-13T00:21:24.837Z,6.10
2023-03-13T00:23:51.985Z,6.00
2023-03-13T00:26:23.525Z,6.00
2023-03-13T00:28:51.469Z,6.00
2023-03-13T00:31:21.232Z,6.10
2023-03-13T00:33:53.361Z,6.10
2023-03-13T00:36:22.708Z,6.00
2023-03-13T00:38:50.312Z,6.10
2023-03-13T00:41:20.107Z,6.30
2023-03-13T00:43:48.953Z,6.20
2023-03-13T00:46:18.163Z,6.30
2023-03-13T00:48:45.515Z,6.30
2023-03-13T00:51:14.013Z,6.20
2023-03-13T00:53:41.784Z,6.20
2023-03-13T00:56:10.833Z,6.30
2023-03-13T00:58:39.758Z,6.20
2023-03-13T01:01:11.823Z,6.10
2023-03-13T01:03:40.503Z,6.20
2023-03-13T01:06:10.110Z,6.10
2023-03-13T01:08:37.091Z,6.10
2023-03-13T01:11:06.885Z,6.10
2023-03-13T01:13:34.521Z,6.10
2023-03-13T01:16:16.904Z,5.90
2023-03-13T01:18:46.329Z,6.00
2023-03-13T01:21:14.458Z,5.90
2023-03-13T01:23:41.543Z,5.90
2023-03-13T01:26:10.137Z,5.90
2023-03-13T01:28:38.432Z,5.90
2023-03-13T01:31:12.252Z,5.90
2023-03-13T01:33:39.174Z,5.90
2023-03-13T01:36:06.336Z,5.90
2023-03-13T01:38:33.097Z,6.00
2023-03-13T01:40:59.893Z,6.10
2023-03-13T01:43:29.380Z,6.10
2023-03-13T01:46:18.748Z,6.10
2023-03-13T01:49:11.696Z,6.10
2023-03-13T01:51:54.658Z,6.00
2023-03-13T01:54:25.209Z,6.10
2023-03-13T01:57:09.768Z,6.00
2023-03-13T01:59:47.134Z,6.00
2023-03-13T02:02:15.857Z,6.00
2023-03-13T02:04:48.644Z,6.00
2023-03-13T02:07:19.659Z,6.10
2023-03-13T02:09:51.400Z,6.00
2023-03-13T02:12:23.966Z,6.00
2023-03-13T02:14:51.972Z,5.90
2023-03-13T02:17:19.224Z,5.90
2023-03-13T02:19:48.785Z,6.00
2023-03-13T02:22:29.878Z,6.00
2023-03-13T02:25:30.127Z,6.10
2023-03-13T02:28:05.636Z,6.10
2023-03-13T02:30:34.817Z,6.00
2023-03-13T02:33:03.662Z,6.00
2023-03-13T02:35:31.903Z,6.00
2023-03-13T02:38:03.543Z,6.00
2023-03-13T02:40:35.038Z,6.10
2023-03-13T02:43:07.316Z,6.10
2023-03-13T02:45:34.117Z,6.20
2023-03-13T02:48:01.051Z,6.10
2023-03-13T02:50:27.958Z,6.00
2023-03-13T02:52:59.672Z,6.00
2023-03-13T02:55:32.600Z,6.10
2023-03-13T02:57:59.647Z,6.20
2023-03-13T03:00:29.560Z,6.10
2023-03-13T03:02:56.583Z,6.10
2023-03-13T03:05:23.676Z,6.10
2023-03-13T03:07:51.456Z,6.00
2023-03-13T03:10:18.896Z,6.10
2023-03-13T03:12:46.177Z,6.10
2023-03-13T03:15:13.788Z,6.00
2023-03-13T03:17:44.758Z,6.10
2023-03-13T03:20:12.233Z,6.10
2023-03-13T03:22:42.351Z,6.00
2023-03-13T03:25:09.645Z,6.00
2023-03-13T03:27:36.977Z,6.00
2023-03-13T03:30:07.720Z,6.00
2023-03-13T03:32:36.258Z,6.00
2023-03-13T03:35:03.295Z,6.00
2023-03-13T03:37:30.136Z,6.00
2023-03-13T03:39:58.343Z,6.00
2023-03-13T03:42:25.245Z,6.10
2023-03-13T03:44:52.040Z,6.10
2023-03-13T03:47:19.185Z,6.10
2023-03-13T03:49:47.846Z,6.10
2023-03-13T03:52:15.914Z,6.20
2023-03-13T03:54:43.962Z,6.20
2023-03-13T03:57:11.405Z,6.20
2023-03-13T03:59:39.838Z,6.20
2023-03-13T04:02:09.123Z,6.20
2023-03-13T04:04:36.449Z,6.20
2023-03-13T04:07:07.655Z,6.10
2023-03-13T04:09:35.063Z,6.10
2023-03-13T04:12:03.719Z,6.10
2023-03-13T04:14:35.170Z,6.30
2023-03-13T04:17:05.148Z,6.20
2023-03-13T04:19:32.378Z,6.20
2023-03-13T04:21:59.521Z,6.20
2023-03-13T04:24:26.238Z,6.20
2023-03-13T04:26:53.034Z,6.20
2023-03-13T04:29:20.661Z,6.20
2023-03-13T04:31:57.725Z,6.30
2023-03-13T04:34:34.351Z,6.20
2023-03-13T04:37:20.204Z,6.30
2023-03-13T04:40:02.922Z,6.30
2023-03-13T04:42:47.961Z,6.30
2023-03-13T04:45:24.963Z,6.30
2023-03-13T04:48:10.322Z,6.20
2023-03-13T04:50:57.355Z,6.30
2023-03-13T04:53:31.416Z,6.20
2023-03-13T04:56:42.085Z,6.30
2023-03-13T04:59:28.665Z,6.40
2023-03-13T05:02:05.357Z,6.40
2023-03-13T05:04:52.566Z,6.40
2023-03-13T05:07:38.009Z,6.40
2023-03-13T05:10:23.290Z,6.40
2023-03-13T05:13:19.382Z,6.40
2023-03-13T05:15:52.078Z,6.40
2023-03-13T05:18:31.012Z,6.40
2023-03-13T05:21:18.490Z,6.40
2023-03-13T05:24:04.546Z,6.40
2023-03-13T05:26:39.474Z,6.40
2023-03-13T05:29:33.220Z,6.40
2023-03-13T05:32:10.637Z,6.40
2023-03-13T05:34:54.804Z,6.40
2023-03-13T05:37:48.315Z,6.50
2023-03-13T05:40:33.666Z,6.50
2023-03-13T05:43:14.479Z,6.50
2023-03-13T05:46:05.197Z,6.50
2023-03-13T05:48:54.855Z,6.40
2023-03-13T05:51:43.017Z,6.50
2023-03-13T05:54:28.474Z,6.50
2023-03-13T05:57:15.472Z,6.50
2023-03-13T05:59:54.839Z,6.50
2023-03-13T06:02:40.236Z,6.50
2023-03-13T06:05:10.169Z,6.50
2023-03-13T06:07:38.247Z,6.50
2023-03-13T06:10:05.676Z,6.50
2023-03-13T06:12:32.854Z,6.50
2023-03-13T06:15:00.325Z,6.60
2023-03-13T06:17:41.438Z,6.70
2023-03-13T06:20:08.841Z,6.60
2023-03-13T06:22:35.577Z,6.60
2023-03-13T06:25:02.553Z,6.60
2023-03-13T06:27:29.317Z,6.70
2023-03-13T06:29:56.058Z,6.70
2023-03-13T06:32:22.912Z,6.60
2023-03-13T06:34:49.869Z,6.70
2023-03-13T06:37:16.872Z,6.60
2023-03-13T06:39:43.623Z,6.50
2023-03-13T06:42:10.407Z,6.60
2023-03-13T06:44:37.470Z,6.70
2023-03-13T06:47:04.416Z,6.80
2023-03-13T06:49:31.208Z,6.70
2023-03-13T06:51:59.008Z,6.80
2023-03-13T06:54:25.892Z,6.70
2023-03-13T06:56:52.642Z,6.60
2023-03-13T06:59:19.401Z,6.80
2023-03-13T07:01:46.190Z,6.80
2023-03-13T07:04:13.506Z,6.90
2023-03-13T07:06:40.633Z,6.90
2023-03-13T07:09:07.413Z,6.90
2023-03-13T07:11:34.140Z,6.90
2023-03-13T07:14:15.795Z,6.90
2023-03-13T07:16:44.177Z,7.00
2023-03-13T07:19:11.020Z,7.00
2023-03-13T07:21:37.918Z,6.90
2023-03-13T07:24:05.175Z,7.00
2023-03-13T07:26:31.988Z,7.00
2023-03-13T07:28:59.017Z,7.00
2023-03-13T07:31:26.234Z,7.00
2023-03-13T07:33:56.522Z,7.10
2023-03-13T07:36:23.981Z,7.10
2023-03-13T07:38:52.055Z,7.20
2023-03-13T07:41:20.189Z,7.20
2023-03-13T07:43:47.727Z,7.30
2023-03-13T07:46:18.678Z,7.30
2023-03-13T07:48:46.420Z,7.20
2023-03-13T07:51:20.563Z,7.40
2023-03-13T07:53:51.205Z,7.40
2023-03-13T07:56:21.364Z,7.40
2023-03-13T07:58:49.046Z,7.50
2023-03-13T08:01:24.220Z,7.60
2023-03-13T08:03:54.367Z,7.60
2023-03-13T08:06:23.458Z,7.60
2023-03-13T08:08:51.361Z,7.60
2023-03-13T08:11:25.798Z,7.60
2023-03-13T08:13:54.094Z,7.60
2023-03-13T08:16:23.532Z,7.60
2023-03-13T08:18:53.957Z,7.60
2023-03-13T08:21:25.940Z,7.70
2023-03-13T08:23:54.803Z,7.80
2023-03-13T08:26:23.591Z,7.80
2023-03-13T08:28:57.315Z,7.80
2023-03-13T08:31:26.820Z,7.80
2023-03-13T08:33:53.621Z,7.80
2023-03-13T08:36:29.249Z,7.90
2023-03-13T08:38:59.490Z,7.80
2023-03-13T08:41:29.023Z,7.80
2023-03-13T08:43:57.270Z,7.80
2023-03-13T08:46:24.994Z,8.00
2023-03-13T08:48:53.495Z,7.90
2023-03-13T08:51:22.131Z,7.90
2023-03-13T08:53:49.694Z,7.90
2023-03-13T08:56:19.800Z,8.00
2023-03-13T08:58:58.477Z,7.90
2023-03-13T09:01:28.808Z,8.10
2023-03-13T09:03:56.246Z,8.00
2023-03-13T09:06:23.036Z,8.20
2023-03-13T09:08:49.770Z,8.20
2023-03-13T09:11:21.334Z,8.10
2023-03-13T09:13:50.302Z,8.20
2023-03-13T09:16:23.186Z,8.20
2023-03-13T09:18:51.500Z,8.30
2023-03-13T09:21:23.725Z,8.40
2023-03-13T09:23:51.420Z,8.50
2023-03-13T09:26:22.783Z,8.70
2023-03-13T09:28:50.670Z,8.70
2023-03-13T09:31:20.308Z,8.90
2023-03-13T09:33:48.758Z,8.90
2023-03-13T09:36:18.768Z,8.90
2023-03-13T09:38:47.660Z,8.90
2023-03-13T09:41:17.596Z,9.00
2023-03-13T09:43:57.614Z,9.00
2023-03-13T09:46:31.966Z,9.10
2023-03-13T09:49:02.661Z,9.10
2023-03-13T09:51:31.740Z,9.20
2023-03-13T09:54:40.790Z,9.20
2023-03-13T09:57:16.381Z,9.20
2023-03-13T10:00:14.719Z,9.10
2023-03-13T10:02:47.500Z,9.20
2023-03-13T10:05:23.799Z,9.30
2023-03-13T10:07:51.053Z,9.40
2023-03-13T10:10:52.143Z,9.40
2023-03-13T10:13:36.869Z,9.40
2023-03-13T10:16:26.694Z,9.40
2023-03-13T10:18:56.149Z,9.40
2023-03-13T10:21:28.099Z,9.50
2023-03-13T10:24:05.132Z,9.50
2023-03-13T10:26:36.630Z,9.50
2023-03-13T10:29:23.238Z,9.60
2023-03-13T10:31:59.937Z,9.70
2023-03-13T10:34:29.942Z,9.70
2023-03-13T10:37:01.921Z,9.70
2023-03-13T10:39:29.684Z,9.80
2023-03-13T10:42:08.216Z,9.80
2023-03-13T10:44:35.028Z,9.80
2023-03-13T10:47:04.450Z,9.70
2023-03-13T10:49:33.643Z,9.70
2023-03-13T10:52:06.430Z,9.80
2023-03-13T10:54:36.475Z,9.80
2023-03-13T10:57:19.166Z,9.90
2023-03-13T10:59:53.670Z,9.90
2023-03-13T11:02:36.833Z,10.00
2023-03-13T11:05:23.726Z,10.00
2023-03-13T11:07:52.200Z,10.10
2023-03-13T11:10:24.673Z,10.20
2023-03-13T11:12:53.846Z,10.10
2023-03-13T11:15:30.797Z,10.30
2023-03-13T11:18:03.709Z,10.40
2023-03-13T11:20:36.648Z,10.40
2023-03-13T11:23:25.549Z,10.50
2023-03-13T11:26:21.200Z,10.50
2023-03-13T11:28:58.598Z,10.50
2023-03-13T11:31:29.969Z,10.50
2023-03-13T11:34:15.389Z,10.60
2023-03-13T11:37:02.527Z,10.60
2023-03-13T11:39:32.123Z,10.60
2023-03-13T11:42:10.714Z,10.60
2023-03-13T11:44:58.873Z,10.80
2023-03-13T11:47:40.592Z,10.80
2023-03-13T11:50:33.377Z,10.80
2023-03-13T11:53:31.170Z,10.90
2023-03-13T11:56:04.286Z,10.90
2023-03-13T11:58:49.904Z,11.00
2023-03-13T12:01:18.725Z,11.00
2023-03-13T12:03:57.495Z,11.00
2023-03-13T12:06:34.390Z,11.10
2023-03-13T12:09:19.265Z,11.20
2023-03-13T12:12:03.624Z,11.20
2023-03-13T12:14:56.448Z,11.20
2023-03-13T12:17:40.304Z,11.30
2023-03-13T12:20:19.992Z,11.30
2023-03-13T12:23:17.091Z,11.30
2023-03-13T12:26:10.249Z,11.50
2023-03-13T12:28:55.071Z,11.50
2023-03-13T12:31:36.562Z,11.70
2023-03-13T12:34:27.223Z,11.70
2023-03-13T12:37:11.587Z,11.80
2023-03-13T12:39:47.858Z,11.90
2023-03-13T12:42:33.168Z,11.90
2023-03-13T12:45:00.261Z,12.00
2023-03-13T12:47:50.728Z,12.10
2023-03-13T12:50:41.788Z,12.10
2023-03-13T12:53:33.773Z,12.20
2023-03-13T12:56:38.675Z,12.20
2023-03-13T12:59:19.342Z,12.30
2023-03-13T13:01:53.486Z,12.50
2023-03-13T13:04:31.038Z,12.60
2023-03-13T13:07:04.537Z,12.60
2023-03-13T13:09:37.184Z,12.70
2023-03-13T13:12:25.117Z,12.80
2023-03-13T13:14:52.073Z,13.00
2023-03-13T13:17:40.744Z,13.10
2023-03-13T13:20:30.498Z,13.20
2023-03-13T13:22:57.803Z,13.20
2023-03-13T13:25:30.138Z,13.20
2023-03-13T13:28:10.635Z,13.30
2023-03-13T13:30:38.094Z,13.40
2023-03-13T13:33:30.659Z,13.50
2023-03-13T13:36:09.627Z,13.50
2023-03-13T13:38:43.679Z,13.40
2023-03-13T13:41:11.406Z,13.70
2023-03-13T13:43:41.933Z,13.90
2023-03-13T13:46:28.637Z,14.00
2023-03-13T13:49:07.797Z,14.10
2023-03-13T13:51:34.589Z,14.30
2023-03-13T13:54:03.987Z,14.50
2023-03-13T13:56:36.580Z,14.60
2023-03-13T13:59:22.634Z,14.40
2023-03-13T14:02:10.390Z,14.40
2023-03-13T14:05:03.913Z,14.60
2023-03-13T14:07:39.786Z,14.60
2023-03-13T14:10:30.820Z,14.60
2023-03-13T14:12:59.625Z,14.60
2023-03-13T14:15:31.798Z,14.30
2023-03-13T14:18:08.777Z,14.50
2023-03-13T14:20:37.887Z,14.40
2023-03-13T14:23:09.956Z,14.50
2023-03-13T14:25:49.846Z,14.40
2023-03-13T14:28:19.156Z,14.60
2023-03-13T14:30:47.807Z,14.40
2023-03-13T14:33:14.876Z,14.60
2023-03-13T14:35:42.757Z,14.60
2023-03-13T14:38:27.326Z,14.60
2023-03-13T14:40:58.300Z,14.50
2023-03-13T14:43:33.513Z,14.50
2023-03-13T14:46:01.049Z,14.60
2023-03-13T14:48:33.467Z,14.50
2023-03-13T14:51:17.613Z,14.60
2023-03-13T14:54:02.822Z,14.50
2023-03-13T14:56:38.209Z,14.40
2023-03-13T14:59:19.478Z,14.40
2023-03-13T15:02:04.415Z,14.40
2023-03-13T15:04:54.578Z,14.50
2023-03-13T15:07:22.479Z,14.50
2023-03-13T15:09:50.426Z,14.60
2023-03-13T15:12:20.903Z,14.50
2023-03-13T15:14:49.980Z,14.50
2023-03-13T15:17:22.606Z,14.60
2023-03-13T15:19:51.613Z,14.70
2023-03-13T15:22:21.813Z,14.70
2023-03-13T15:25:04.904Z,14.80
2023-03-13T15:27:32.394Z,14.80
2023-03-13T15:29:59.178Z,14.90
2023-03-13T15:32:38.809Z,14.90
2023-03-13T15:35:24.061Z,14.90
2023-03-13T15:37:50.976Z,14.90
2023-03-13T15:40:18.283Z,14.90
2023-03-13T15:42:45.029Z,14.90
2023-03-13T15:45:12.039Z,14.90
2023-03-13T15:47:38.854Z,14.90
2023-03-13T15:50:12.012Z,15.00
2023-03-13T15:52:38.989Z,14.90
2023-03-13T15:55:07.996Z,14.90
2023-03-13T15:57:36.775Z,14.80
2023-03-13T16:00:06.900Z,14.70
2023-03-13T16:02:33.618Z,14.70
2023-03-13T16:05:00.373Z,14.70
2023-03-13T16:07:27.182Z,14.60
2023-03-13T16:09:53.912Z,14.70
2023-03-13T16:12:20.733Z,14.60
2023-03-13T16:14:47.555Z,14.60
2023-03-13T16:17:17.128Z,14.60
2023-03-13T16:19:45.352Z,14.50
2023-03-13T16:22:12.497Z,14.40
2023-03-13T16:24:39.722Z,14.50
2023-03-13T16:27:17.499Z,14.40
2023-03-13T16:29:45.345Z,14.40
2023-03-13T16:32:14.916Z,14.40
2023-03-13T16:34:42.955Z,14.40
2023-03-13T16:37:14.928Z,14.30
2023-03-13T16:39:42.682Z,14.20
2023-03-13T16:42:09.969Z,14.40
2023-03-13T16:44:36.998Z,14.20
2023-03-13T16:47:16.764Z,14.20
2023-03-13T16:49:45.152Z,14.20
2023-03-13T16:52:17.862Z,14.20
2023-03-13T16:54:45.212Z,14.20
2023-03-13T16:57:14.965Z,14.10
2023-03-13T16:59:41.718Z,14.10
2023-03-13T17:02:17.312Z,14.00
2023-03-13T17:04:45.469Z,14.10
2023-03-13T17:07:19.993Z,14.00
2023-03-13T17:09:47.297Z,14.00
2023-03-13T17:12:14.068Z,14.10
2023-03-13T17:14:40.952Z,13.90
2023-03-13T17:17:14.501Z,14.00
2023-03-13T17:19:41.300Z,13.80
2023-03-13T17:22:11.119Z,13.80
2023-03-13T17:24:37.860Z,13.90
2023-03-13T17:27:05.516Z,13.90
2023-03-13T17:29:32.255Z,13.90
2023-03-13T17:31:59.009Z,13.70
2023-03-13T17:34:27.730Z,13.70
2023-03-13T17:36:54.450Z,13.70
2023-03-13T17:39:21.384Z,13.70
2023-03-13T17:41:48.155Z,13.80
2023-03-13T17:44:14.923Z,13.60
2023-03-13T17:46:44.308Z,13.60
2023-03-13T17:49:15.944Z,13.70
2023-03-13T17:51:45.023Z,13.50
2023-03-13T17:54:14.420Z,13.50
2023-03-13T17:56:43.026Z,13.50
2023-03-13T17:59:15.732Z,13.50
2023-03-13T18:01:42.989Z,13.50
2023-03-13T18:04:10.816Z,13.50
2023-03-13T18:06:50.454Z,13.50
2023-03-13T18:09:19.812Z,13.50
2023-03-13T18:11:47.542Z,13.50
2023-03-13T18:14:14.756Z,13.50
2023-03-13T18:16:47.744Z,13.50
2023-03-13T18:19:22.395Z,13.50
2023-03-13T18:21:51.839Z,13.50
2023-03-13T18:24:18.870Z,13.60
2023-03-13T18:26:47.317Z,13.40
2023-03-13T18:29:19.326Z,13.60
2023-03-13T18:31:46.123Z,13.50
2023-03-13T18:34:13.079Z,13.50
2023-03-13T18:36:39.896Z,13.50
2023-03-13T18:39:07.022Z,13.40
2023-03-13T18:41:36.892Z,13.40
2023-03-13T18:44:03.752Z,13.40
2023-03-13T18:46:33.472Z,13.40
2023-03-13T18:49:01.084Z,13.50
2023-03-13T18:51:28.654Z,13.40
2023-03-13T18:53:55.680Z,13.40
2023-03-13T18:56:29.363Z,13.40
2023-03-13T18:58:56.623Z,13.30
2023-03-13T19:01:26.674Z,13.30
2023-03-13T19:03:53.517Z,13.30
2023-03-13T19:06:35.104Z,13.30
2023-03-13T19:09:40.962Z,13.30
2023-03-13T19:12:01.291Z,13.30
2023-03-13T19:14:28.009Z,13.40
2023-03-13T19:16:56.397Z,13.30
2023-03-13T19:19:24.819Z,13.30
2023-03-13T19:21:55.498Z,13.30
2023-03-13T19:24:24.021Z,13.30
2023-03-13T19:26:53.836Z,13.30
2023-03-13T19:29:22.935Z,13.20
2023-03-13T19:31:50.484Z,13.20
2023-03-13T19:34:17.449Z,13.20
2023-03-13T19:36:47.102Z,13.10
2023-03-13T19:39:25.150Z,13.10
2023-03-13T19:41:53.091Z,12.90
2023-03-13T19:44:20.778Z,12.70
2023-03-13T19:46:47.777Z,12.50
2023-03-13T19:49:19.581Z,12.50
2023-03-13T19:51:46.891Z,12.50
2023-03-13T19:54:14.530Z,12.40
2023-03-13T19:56:44.149Z,12.20
2023-03-13T19:59:18.919Z,12.10
2023-03-13T20:01:45.880Z,12.10
2023-03-13T20:04:13.606Z,12.10
2023-03-13T20:06:41.837Z,12.20
2023-03-13T20:09:11.267Z,12.00
2023-03-13T20:11:38.660Z,11.80
2023-03-13T20:14:05.565Z,11.80
2023-03-13T20:16:34.959Z,11.70
2023-03-13T20:19:02.927Z,11.70
2023-03-13T20:21:35.374Z,11.60
2023-03-13T20:24:02.431Z,11.50
2023-03-13T20:26:30.008Z,11.60
2023-03-13T20:28:57.513Z,11.80
2023-03-13T20:31:27.733Z,11.80
2023-03-13T20:33:55.496Z,11.80
2023-03-13T20:36:23.343Z,11.80
2023-03-13T20:38:50.618Z,11.80
2023-03-13T20:41:24.646Z,11.80
2023-03-13T20:43:52.304Z,11.70
2023-03-13T20:46:19.315Z,11.80
2023-03-13T20:48:46.126Z,11.80
2023-03-13T20:51:13.209Z,11.70
2023-03-13T20:53:41.666Z,11.80
2023-03-13T20:56:10.448Z,11.80
2023-03-13T20:58:37.745Z,11.80
2023-03-13T21:01:06.285Z,11.80
2023-03-13T21:03:35.497Z,11.80
2023-03-13T21:06:16.586Z,11.70
2023-03-13T21:08:44.496Z,11.60
2023-03-13T21:11:20.392Z,11.60
2023-03-13T21:13:47.804Z,11.50
2023-03-13T21:16:15.407Z,11.50
2023-03-13T21:18:42.629Z,11.60
2023-03-13T21:21:13.294Z,11.50
2023-03-13T21:23:40.447Z,11.50
2023-03-13T21:26:07.496Z,11.50
2023-03-13T21:28:34.789Z,11.50
2023-03-13T21:31:11.824Z,11.40
2023-03-13T21:33:39.438Z,11.30
2023-03-13T21:36:06.721Z,11.20
2023-03-13T21:38:33.821Z,11.10
2023-03-13T21:41:00.584Z,11.10
2023-03-13T21:43:30.269Z,11.00
2023-03-13T21:45:59.306Z,10.90
2023-03-13T21:48:26.531Z,10.80
2023-03-13T21:50:54.057Z,10.80
2023-03-13T21:53:20.899Z,10.80
2023-03-13T21:55:51.469Z,10.80
2023-03-13T21:58:18.428Z,10.90
2023-03-13T22:00:45.361Z,10.70
2023-03-13T22:03:12.531Z,10.90
2023-03-13T22:05:43.926Z,10.90
2023-03-13T22:08:11.729Z,10.70
2023-03-13T22:10:39.277Z,10.60
2023-03-13T22:13:08.010Z,10.50
2023-03-13T22:15:34.789Z,10.40
2023-03-13T22:18:01.755Z,10.30
2023-03-13T22:20:28.454Z,10.20
2023-03-13T22:22:55.270Z,10.10
2023-03-13T22:25:22.096Z,10.20
2023-03-13T22:27:48.834Z,10.30
2023-03-13T22:30:15.710Z,10.20
2023-03-13T22:32:42.500Z,10.10
2023-03-13T22:35:09.641Z,10.00
2023-03-13T22:37:36.504Z,10.00
2023-03-13T22:40:03.761Z,10.20
2023-03-13T22:42:30.606Z,10.10
2023-03-13T22:44:57.453Z,10.00
2023-03-13T22:47:25.876Z,10.00
2023-03-13T22:49:53.538Z,9.90
2023-03-13T22:52:21.368Z,9.80
2023-03-13T22:54:48.179Z,9.80
2023-03-13T22:57:14.962Z,9.90
2023-03-13T22:59:41.698Z,10.00
2023-03-13T23:02:08.440Z,10.20
2023-03-13T23:04:35.184Z,10.20
2023-03-13T23:07:01.940Z,10.10
2023-03-13T23:09:28.670Z,10.00
2023-03-13T23:11:55.414Z,9.90
2023-03-13T23:14:22.112Z,9.90
2023-03-13T23:16:49.059Z,9.90
2023-03-13T23:19:15.797Z,9.80
2023-03-13T23:21:42.630Z,10.00
2023-03-13T23:24:09.393Z,10.20
2023-03-13T23:26:36.330Z,10.10
2023-03-13T23:29:03.121Z,10.10
2023-03-13T23:31:30.024Z,9.90
2023-03-13T23:33:56.813Z,9.80
2023-03-13T23:36:23.594Z,9.80
2023-03-13T23:38:52.327Z,9.90
2023-03-13T23:41:20.153Z,10.00
2023-03-13T23:43:47.108Z,9.90
2023-03-13T23:46:19.371Z,9.90
2023-03-13T23:48:46.316Z,9.80
2023-03-13T23:51:13.418Z,9.80
2023-03-13T23:53:42.052Z,9.70
2023-03-13T23:56:10.272Z,9.70
2023-03-13T23:58:37.005Z,9.60
